• Join FlightAware (Why Join?)
  • Login
  • US Flag 
Rudolph Flight #1: Arrived! 
03:11PM EST


 

Airport Tracker/Info


-or-


 

Live Flight TrackerFlight Track Log ✈ EJA396 ✈ 10-Jun-2013 ✈ KSJC - KSMO

Flight Track Log - Related Links

Times and Time Zones

All times are in EDT time to prevent confusion due to time zone crossing. See the EJA396 flight status page for this flight to view local times or setup timezone preferences in your user account.

Time Position Orientation Groundspeed Altitude Reporting Facility
EDT Latitude Longitude Course Direction KTS MPH feet Rate Location/Type
07:06PM 37.3333 -121.8833 141° Southeast 216 249 3,700  Level Northern Cal TRACON
07:07PM 37.2833 -121.8333 141° Southeast 272 313 7,600 3,960 Climbing Northern Cal TRACON
07:08PM 37.2569 -121.7761 120° Southeast 266 306 10,300 3,540 Climbing Oakland Center
07:09PM 37.1931 -121.7003 137° Southeast 309 356 13,600 3,120 Climbing Oakland Center
07:10PM 37.1233 -121.6197 137° Southeast 336 387 16,700 2,460 Climbing Oakland Center
07:11PM 37.0003 -121.5328 141° Southeast  Level Estimated
07:11PM 37.0494 -121.5372 138° Southeast 350 403 18,700  Level Oakland Center
07:12PM 36.9725 -121.4478 137° Southeast 375 432 20,500 1,920 Climbing Oakland Center
07:13PM 36.8481 -121.3733 154° Southeast 417 480 22,700 1,860 Climbing Oakland Center
07:14PM 36.7514 -121.3206 156° South 438 504 24,300 1,800 Climbing Oakland Center
07:15PM 36.6133 -121.2406 155° Southeast 453 521 26,400 1,260 Climbing Oakland Center
07:16PM 36.5008 -121.1611 150° Southeast 465 535 27,000 240 Climbing Oakland Center
07:17PM 36.3992 -121.0542 140° Southeast 476 548 27,000  Level Oakland Center
07:18PM 36.2925 -120.9575 144° Southeast 478 550 27,000  Level Oakland Center
07:19PM 36.1861 -120.8558 142° Southeast 482 555 27,000  Level Oakland Center
07:20PM 36.0794 -120.7583 144° Southeast 477 549 27,000  Level Oakland Center
07:21PM 35.9744 -120.6628 144° Southeast 470 541 27,000  Level Oakland Center
07:22PM 35.8694 -120.5667 143° Southeast 471 542 27,000  Level Oakland Center
07:23PM 35.7628 -120.4686 143° Southeast 476 548 27,000  Level Oakland Center
07:24PM 35.6558 -120.3714 144° Southeast 477 549 27,000  Level Oakland Center
07:25PM 35.5681 -120.2953 145° Southeast 478 550 27,000  Level Los Angeles Center
07:26PM 35.4619 -120.1967 143° Southeast 478 550 27,000  Level Los Angeles Center
07:27PM 35.3492 -120.0944 144° Southeast 481 554 27,000  Level Los Angeles Center
07:28PM 35.2397 -119.9967 144° Southeast 482 555 27,000  Level Los Angeles Center
07:29PM 35.1108 -119.8797 143° Southeast 479 551 27,000 -240 Level Los Angeles Center
07:30PM 35.0367 -119.7878 135° Southeast 476 548 26,600 -1,620 Descending Los Angeles Center
07:31PM 34.9317 -119.6469 132° Southeast 467 537 23,700 -2,760 Descending Los Angeles Center
07:32PM 34.8289 -119.5083 132° Southeast 458 527 20,900 -2,580 Descending Los Angeles Center
07:33PM 34.7469 -119.3972 132° Southeast 446 513 18,500 -2,340 Descending Los Angeles Center
07:34PM 34.6706 -119.2947 132° Southeast 413 475 16,100 -2,460 Descending Los Angeles Center
07:35PM 34.5908 -119.1928 134° Southeast 391 450 13,500 -2,400 Descending Los Angeles Center
07:36PM 34.5203 -119.0992 132° Southeast 378 435 11,200 -1,260 Descending Los Angeles Center
07:37PM 34.4611 -119.0219 133° Southeast 310 357 11,000 -660 Descending Los Angeles Center
07:38PM 34.4031 -118.9433 132° Southeast 313 360 9,900 -1,320 Descending Los Angeles Center
07:39PM 34.3492 -118.8653 130° Southeast 303 349 8,300 -1,440 Descending Los Angeles Center
07:40PM 34.3197 -118.7739 111° Southeast 290 334 7,000 -660 Descending Los Angeles Center
07:41PM 34.2831 -118.6653 112° Southeast 289 333 7,000  Level Los Angeles Center
07:42PM 34.2525 -118.5744 112° Southeast 292 336 7,000  Level Los Angeles Center
07:43PM 34.2217 -118.4842 112° Southeast 292 336 7,000 -420 Level Los Angeles Center
07:44PM 34.1936 -118.3944 111° Southeast 288 331 6,200 -900 Descending Los Angeles Center
07:45PM 34.1653 -118.3206 115° Southeast 260 299 5,200 -1,380 Descending Los Angeles Center
07:46PM 34.1086 -118.3322 190° South 237 273 3,400 -1,320 Descending Los Angeles Center
07:47PM 34.0689 -118.3819 226° Southwest 211 243 2,600 -1,260 Descending Los Angeles Center
07:48PM 34.0381 -118.4261 230° Southwest 165 190 900 -1,200 Descending Los Angeles Center
07:49PM 34.0181 -118.4483 223° Southwest 125 144 200 -720 Descending Los Angeles Center
07:51PM 34.0158 -118.4513 180° South  Level Estimated
07:58PM 34.0158 -118.4513 180° South  Level Estimated